Terminal Aerodrome Forecast
Issued by NWS

Home | Current Version | Previous Version | Graphics & Text | Print | Product List | Glossary On
Versions: 1 2 3 4 5 6 7 8 9 10 11 12 13 14 15 16 17 18 19 20 21 22
440
FTUS43 KABR 251720
TAFPIR
TAF
KPIR 251720Z 2518/2618 27006KT P6SM SKC
     FM252300 33009KT P6SM SKC
     FM260300 03008KT P6SM SKC
      AMD NOT SKED=

USA.gov is the U.S. government's official web portal to all federal, state and local government web resources and services.